Time;durP1;ratioP1;P1;durP2;ratioP2;P2;SDS_P1;SDS_P2;PMS_P1;PMS_P2;Temp;Humidity;BMP_temperature;BMP_pressure;BME280_temperature;BME280_humidity;BME280_pressure;Samples;Min_cycle;Max_cycle;Signal;HPM_P1;HPM_P2
2022/08/12 00:43:59;;;;;;;4.72;3.17;;;;;;;;;;5111493;27;20393;-75
2022/08/12 00:46:35;;;;;;;5.65;3.42;;;;;;;;;;5110972;28;20024;-75
2022/08/12 00:49:02;;;;;;;5.70;3.17;;;;;;;;;;5111506;28;20107;-75
2022/08/12 00:54:13;;;;;;;7.93;3.85;;;;;;;;;;5111169;28;20034;-74
2022/08/12 00:56:41;;;;;;;5.38;3.40;;;;;;;;;;5111494;28;20024;-74
2022/08/12 00:59:08;;;;;;;5.00;3.00;;;;;;;;;;5110751;28;20473;-75
2022/08/12 01:01:35;;;;;;;7.95;3.95;;;;;;;;;;5111049;28;20089;-74
2022/08/12 01:12:17;;;;;;;6.00;3.25;;;;;;;;;;5110994;28;20027;-74
2022/08/12 01:14:43;;;;;;;6.85;4.63;;;;;;;;;;5110493;28;20081;-74
2022/08/12 01:17:09;;;;;;;6.43;3.83;;;;;;;;;;5110814;28;20490;-74
2022/08/12 01:21:17;;;;;;;5.43;3.92;;;;;;;;;;5111535;27;20426;-73
2022/08/12 01:23:59;;;;;;;7.43;4.40;;;;;;;;;;5110147;28;20024;-73
2022/08/12 01:26:25;;;;;;;6.53;3.95;;;;;;;;;;5110081;28;20024;-73
2022/08/12 01:28:57;;;;;;;6.47;4.38;;;;;;;;;;5110855;28;20109;-73
2022/08/12 01:31:25;;;;;;;7.40;4.40;;;;;;;;;;5109937;28;20483;-73
2022/08/12 01:33:58;;;;;;;6.78;3.63;;;;;;;;;;5111197;28;20053;-74
2022/08/12 01:41:07;;;;;;;5.15;3.55;;;;;;;;;;5152821;27;20411;-74
2022/08/12 01:43:33;;;;;;;5.32;3.65;;;;;;;;;;5152561;27;20076;-73
2022/08/12 01:48:11;;;;;;;6.60;3.58;;;;;;;;;;5111444;27;20872;-73
2022/08/12 01:50:50;;;;;;;5.75;3.30;;;;;;;;;;5111419;28;20441;-74
2022/08/12 01:53:19;;;;;;;4.75;3.22;;;;;;;;;;5111541;28;20020;-74
2022/08/12 01:55:46;;;;;;;6.55;4.28;;;;;;;;;;5110902;28;20016;-74
2022/08/12 01:58:25;;;;;;;5.10;3.42;;;;;;;;;;5127031;28;20023;-74
2022/08/12 02:01:02;;;;;;;6.95;3.65;;;;;;;;;;5127066;28;20020;-74
2022/08/12 02:13:08;;;;;;;5.15;3.13;;;;;;;;;;5092051;27;20478;-74
2022/08/12 02:15:40;;;;;;;5.47;3.30;;;;;;;;;;5106767;28;20415;-74
2022/08/12 02:20:05;;;;;;;6.07;3.13;;;;;;;;;;5111721;27;20388;-74
2022/08/12 02:22:37;;;;;;;5.28;3.38;;;;;;;;;;5111675;28;20499;-73
2022/08/12 02:25:03;;;;;;;6.38;3.53;;;;;;;;;;5111007;28;20031;-74
2022/08/12 02:27:33;;;;;;;5.78;3.30;;;;;;;;;;5111307;28;20024;-73
2022/08/12 02:29:59;;;;;;;5.00;3.10;;;;;;;;;;5111331;28;20495;-74
2022/08/12 02:33:07;;;;;;;5.45;3.35;;;;;;;;;;5112190;27;20581;-73
2022/08/12 02:35:34;;;;;;;5.10;3.00;;;;;;;;;;5111440;28;20553;-73
2022/08/12 02:40:16;;;;;;;5.22;3.20;;;;;;;;;;5111982;27;20565;-74
2022/08/12 02:42:49;;;;;;;4.82;3.13;;;;;;;;;;5111376;28;20430;-73
2022/08/12 02:50:14;;;;;;;4.88;3.20;;;;;;;;;;5111661;27;20404;-73
2022/08/12 02:54:34;;;;;;;5.28;3.10;;;;;;;;;;5112256;27;20450;-74
2022/08/12 02:57:00;;;;;;;5.30;2.95;;;;;;;;;;5111781;28;20024;-74
2022/08/12 02:59:42;;;;;;;5.78;3.15;;;;;;;;;;5111111;27;20389;-74
2022/08/12 03:02:10;;;;;;;4.57;3.00;;;;;;;;;;5127332;28;20418;-74
2022/08/12 03:08:58;;;;;;;4.95;3.08;;;;;;;;;;5111565;27;20453;-74
2022/08/12 03:13:14;;;;;;;4.80;3.10;;;;;;;;;;5111416;27;20442;-74
2022/08/12 03:15:41;;;;;;;5.00;3.00;;;;;;;;;;5111704;28;20023;-74
2022/08/12 03:19:48;;;;;;;5.63;2.92;;;;;;;;;;5111350;27;20762;-73
2022/08/12 03:23:49;;;;;;;4.57;3.20;;;;;;;;;;5111476;27;20418;-74
2022/08/12 03:27:48;;;;;;;5.80;3.00;;;;;;;;;;5111467;27;20388;-74
2022/08/12 03:30:15;;;;;;;4.72;2.90;;;;;;;;;;5111530;28;20032;-74
2022/08/12 03:32:44;;;;;;;3.78;2.65;;;;;;;;;;5111326;28;20095;-74
2022/08/12 03:35:11;;;;;;;5.13;3.05;;;;;;;;;;5111014;28;20021;-74
2022/08/12 03:37:39;;;;;;;5.65;3.05;;;;;;;;;;5111396;28;20097;-74
2022/08/12 03:41:31;;;;;;;5.28;3.08;;;;;;;;;;5111169;28;20055;-74
2022/08/12 04:01:11;;;;;;;4.00;2.80;;;;;;;;;;5111662;28;20043;-74
2022/08/12 04:03:53;;;;;;;3.22;2.38;;;;;;;;;;5110976;28;20045;-74
2022/08/12 04:08:31;;;;;;;4.80;3.00;;;;;;;;;;5111627;27;20505;-74
2022/08/12 04:13:15;;;;;;;5.25;2.70;;;;;;;;;;5112126;27;20384;-74
2022/08/12 04:15:44;;;;;;;3.80;2.55;;;;;;;;;;5111984;28;20031;-74
2022/08/12 04:18:11;;;;;;;3.75;2.35;;;;;;;;;;5110918;28;20410;-75
2022/08/12 04:20:38;;;;;;;5.47;3.08;;;;;;;;;;5111231;28;20028;-75
2022/08/12 04:23:07;;;;;;;4.00;2.45;;;;;;;;;;5110845;28;20063;-75
2022/08/12 04:25:35;;;;;;;4.70;2.63;;;;;;;;;;5111213;28;20490;-75
2022/08/12 04:28:27;;;;;;;4.63;2.65;;;;;;;;;;5111980;27;20385;-74
2022/08/12 04:32:51;;;;;;;4.95;2.78;;;;;;;;;;5111383;27;20541;-74
2022/08/12 04:35:17;;;;;;;4.65;2.65;;;;;;;;;;5111287;28;20501;-74
2022/08/12 04:37:45;;;;;;;4.55;2.45;;;;;;;;;;5110882;28;20028;-75
2022/08/12 04:40:12;;;;;;;5.55;3.03;;;;;;;;;;5111252;28;20023;-75
2022/08/12 04:42:38;;;;;;;7.13;3.33;;;;;;;;;;5111743;28;20460;-75
2022/08/12 04:45:06;;;;;;;5.07;2.90;;;;;;;;;;5110772;28;20056;-74
2022/08/12 04:48:15;;;;;;;4.80;2.72;;;;;;;;;;5112227;27;20381;-75
2022/08/12 04:50:41;;;;;;;4.47;2.53;;;;;;;;;;5111301;28;20023;-75
2022/08/12 04:53:08;;;;;;;5.35;2.78;;;;;;;;;;5110917;28;20028;-75
2022/08/12 04:55:34;;;;;;;5.18;2.92;;;;;;;;;;5111314;28;20498;-75
2022/08/12 05:00:06;;;;;;;6.05;2.65;;;;;;;;;;5111058;27;20438;-75
2022/08/12 05:02:32;;;;;;;4.30;2.67;;;;;;;;;;5111403;28;20020;-75
2022/08/12 05:05:49;;;;;;;4.55;2.83;;;;;;;;;;5110996;27;20454;-75
2022/08/12 05:09:42;;;;;;;5.35;3.10;;;;;;;;;;5112197;27;20474;-74
2022/08/12 05:12:08;;;;;;;4.65;3.05;;;;;;;;;;5110971;28;20051;-75
2022/08/12 05:16:07;;;;;;;4.13;2.65;;;;;;;;;;5112220;27;21041;-74
2022/08/12 05:20:24;;;;;;;5.78;2.90;;;;;;;;;;5111264;27;20397;-74
2022/08/12 05:22:51;;;;;;;5.05;2.60;;;;;;;;;;5111494;28;20048;-74
2022/08/12 05:25:18;;;;;;;4.13;2.53;;;;;;;;;;5111580;28;20034;-74
2022/08/12 05:27:45;;;;;;;3.55;2.25;;;;;;;;;;5110916;28;20095;-74
2022/08/12 05:30:11;;;;;;;5.75;2.53;;;;;;;;;;5111211;28;20387;-75
2022/08/12 05:32:38;;;;;;;4.50;2.72;;;;;;;;;;5111235;28;20024;-75
2022/08/12 05:35:05;;;;;;;3.58;2.20;;;;;;;;;;5110772;28;20031;-76
2022/08/12 05:37:33;;;;;;;4.20;2.53;;;;;;;;;;5111057;28;20069;-76
2022/08/12 05:39:59;;;;;;;8.45;3.00;;;;;;;;;;5105467;28;20085;-75
2022/08/12 05:43:56;;;;;;;6.18;2.72;;;;;;;;;;5111285;27;20418;-74
2022/08/12 05:46:53;;;;;;;3.35;2.33;;;;;;;;;;5105228;27;20767;-72
2022/08/12 05:49:19;;;;;;;3.88;2.60;;;;;;;;;;5096402;28;20032;-74
2022/08/12 05:51:45;;;;;;;4.63;2.92;;;;;;;;;;5100277;28;20024;-72
2022/08/12 05:54:53;;;;;;;5.20;3.00;;;;;;;;;;5106301;27;20975;-73
2022/08/12 05:57:20;;;;;;;5.40;2.83;;;;;;;;;;5091022;28;20507;-73
2022/08/12 05:59:46;;;;;;;4.10;2.67;;;;;;;;;;5110123;28;20512;-73
2022/08/12 06:02:13;;;;;;;4.68;2.83;;;;;;;;;;5109459;28;20086;-74
2022/08/12 06:05:35;;;;;;;4.25;2.70;;;;;;;;;;5087488;27;20472;-73
2022/08/12 06:08:04;;;;;;;5.05;2.78;;;;;;;;;;5070462;28;20031;-72
2022/08/12 06:10:31;;;;;;;3.97;2.72;;;;;;;;;;5072104;28;20526;-72
2022/08/12 06:12:57;;;;;;;3.65;2.38;;;;;;;;;;5072289;28;20024;-71
2022/08/12 06:15:24;;;;;;;4.53;2.80;;;;;;;;;;5090046;28;20024;-72
2022/08/12 06:17:50;;;;;;;5.45;3.20;;;;;;;;;;5090642;28;20100;-73
2022/08/12 06:20:16;;;;;;;4.20;2.88;;;;;;;;;;5090524;28;20021;-73
2022/08/12 06:24:51;;;;;;;4.68;3.00;;;;;;;;;;5111063;27;20919;-72
2022/08/12 06:27:17;;;;;;;4.68;3.13;;;;;;;;;;5103446;28;20055;-71
2022/08/12 06:29:43;;;;;;;4.28;2.90;;;;;;;;;;5101570;28;20063;-72
2022/08/12 06:32:32;;;;;;;5.20;2.60;;;;;;;;;;5100246;27;20613;-71
2022/08/12 06:34:58;;;;;;;4.47;2.50;;;;;;;;;;5096842;28;20106;-72
2022/08/12 06:37:24;;;;;;;4.32;2.83;;;;;;;;;;5099113;28;20103;-73
2022/08/12 06:39:50;;;;;;;3.78;2.65;;;;;;;;;;5096520;28;20472;-72
2022/08/12 06:45:01;;;;;;;4.05;2.67;;;;;;;;;;5090726;28;20027;-72
2022/08/12 06:47:27;;;;;;;6.05;2.80;;;;;;;;;;5105003;28;20047;-73
2022/08/12 06:51:19;;;;;;;4.15;2.67;;;;;;;;;;5111073;27;20389;-74
2022/08/12 06:53:45;;;;;;;4.70;2.97;;;;;;;;;;5108738;28;20055;-74
2022/08/12 06:56:12;;;;;;;5.18;2.78;;;;;;;;;;5101980;28;20020;-72
2022/08/12 06:59:59;;;;;;;4.72;3.05;;;;;;;;;;5106194;27;20473;-72
2022/08/12 07:03:09;;;;;;;5.35;2.83;;;;;;;;;;5111346;27;20980;-71
2022/08/12 07:05:35;;;;;;;5.38;3.22;;;;;;;;;;5110725;28;20055;-72
2022/08/12 07:08:01;;;;;;;5.53;2.95;;;;;;;;;;5111133;28;20016;-72
2022/08/12 07:10:27;;;;;;;4.75;2.88;;;;;;;;;;5111070;28;20099;-72
2022/08/12 07:12:54;;;;;;;4.80;3.30;;;;;;;;;;5110594;28;20034;-72
2022/08/12 07:15:24;;;;;;;4.93;3.20;;;;;;;;;;5126571;28;20024;-72
2022/08/12 07:18:37;;;;;;;4.50;3.13;;;;;;;;;;5110944;28;20073;-72
2022/08/12 07:21:18;;;;;;;4.63;2.85;;;;;;;;;;5111100;27;20441;-73
2022/08/12 07:23:45;;;;;;;5.43;3.22;;;;;;;;;;5111170;28;20024;-73
2022/08/12 07:28:08;;;;;;;4.53;3.13;;;;;;;;;;5111327;27;20415;-73
2022/08/12 07:32:04;;;;;;;4.57;2.53;;;;;;;;;;5109534;27;20405;-73
2022/08/12 07:36:35;;;;;;;4.25;2.95;;;;;;;;;;5110836;27;20389;-72
2022/08/12 07:40:12;;;;;;;5.10;3.00;;;;;;;;;;5111277;27;20380;-72
2022/08/12 07:42:39;;;;;;;5.40;3.33;;;;;;;;;;5111121;28;20027;-73
2022/08/12 07:45:41;;;;;;;4.32;2.63;;;;;;;;;;5173648;27;20534;-75
2022/08/12 07:49:11;;;;;;;5.28;3.20;;;;;;;;;;5110920;27;20924;-73
2022/08/12 07:52:45;;;;;;;6.28;3.45;;;;;;;;;;5111363;27;20737;-73
2022/08/12 07:55:12;;;;;;;4.13;3.10;;;;;;;;;;5110607;28;20027;-73
2022/08/12 07:57:59;;;;;;;6.18;3.83;;;;;;;;;;5111130;28;20027;-74
2022/08/12 08:02:37;;;;;;;5.55;3.30;;;;;;;;;;5110442;27;20400;-73
2022/08/12 08:05:04;;;;;;;4.90;3.50;;;;;;;;;;5090268;28;20020;-72
2022/08/12 08:07:30;;;;;;;6.82;3.42;;;;;;;;;;5079216;28;20025;-73
2022/08/12 08:09:57;;;;;;;6.85;3.67;;;;;;;;;;5079317;28;20526;-74
2022/08/12 08:15:09;;;;;;;5.25;3.08;;;;;;;;;;5072146;28;20119;-73
2022/08/12 08:19:25;;;;;;;4.55;3.05;;;;;;;;;;5110887;27;20426;-74
2022/08/12 08:26:06;;;;;;;4.70;2.83;;;;;;;;;;5111504;27;20392;-72
2022/08/12 08:28:35;;;;;;;5.80;3.03;;;;;;;;;;5111111;28;20032;-72
2022/08/12 08:31:01;;;;;;;5.10;3.20;;;;;;;;;;5110645;28;20016;-72
2022/08/12 08:33:27;;;;;;;5.32;3.10;;;;;;;;;;5110928;28;20553;-73
2022/08/12 08:35:53;;;;;;;5.65;3.60;;;;;;;;;;5111065;28;20020;-73
2022/08/12 08:38:19;;;;;;;4.95;2.85;;;;;;;;;;5110756;28;20027;-71
2022/08/12 08:43:33;;;;;;;4.57;2.80;;;;;;;;;;5110642;28;20082;-73
2022/08/12 08:46:04;;;;;;;4.65;2.50;;;;;;;;;;5110798;28;20040;-74
2022/08/12 08:48:31;;;;;;;5.10;2.67;;;;;;;;;;5110974;28;20111;-73
2022/08/12 08:50:58;;;;;;;5.40;2.75;;;;;;;;;;5103942;28;20028;-74
2022/08/12 08:53:24;;;;;;;3.92;2.42;;;;;;;;;;5108434;28;20383;-74
2022/08/12 08:55:52;;;;;;;5.03;2.45;;;;;;;;;;5108648;28;20016;-74
2022/08/12 08:58:20;;;;;;;3.97;2.20;;;;;;;;;;5109623;28;20020;-73
2022/08/12 09:00:49;;;;;;;5.35;3.10;;;;;;;;;;5110459;28;20360;-73
2022/08/12 09:03:15;;;;;;;3.83;2.58;;;;;;;;;;5110097;28;20024;-73
2022/08/12 09:05:41;;;;;;;3.95;2.83;;;;;;;;;;5109715;28;20380;-72
2022/08/12 09:08:18;;;;;;;4.13;2.60;;;;;;;;;;5108671;28;20073;-75
2022/08/12 09:10:45;;;;;;;4.18;2.78;;;;;;;;;;5102752;28;20038;-72
2022/08/12 09:15:56;;;;;;;5.15;3.10;;;;;;;;;;5107771;28;20039;-72
2022/08/12 09:18:23;;;;;;;5.88;3.30;;;;;;;;;;5109707;28;20023;-72
2022/08/12 09:20:49;;;;;;;4.57;3.13;;;;;;;;;;5110157;28;20105;-72
2022/08/12 09:23:16;;;;;;;7.10;3.22;;;;;;;;;;5109892;28;20027;-74
2022/08/12 09:25:43;;;;;;;10.23;3.08;;;;;;;;;;5109359;28;20040;-74
2022/08/12 09:28:11;;;;;;;4.75;2.88;;;;;;;;;;5109989;28;20069;-73
2022/08/12 09:30:51;;;;;;;4.75;2.75;;;;;;;;;;5109914;28;20031;-73
2022/08/12 09:34:07;;;;;;;4.55;2.95;;;;;;;;;;5110732;27;20397;-73
2022/08/12 09:36:37;;;;;;;4.18;2.72;;;;;;;;;;5111023;28;20050;-73
2022/08/12 09:39:06;;;;;;;4.50;2.72;;;;;;;;;;5109661;28;20088;-73
2022/08/12 09:41:41;;;;;;;4.80;2.90;;;;;;;;;;5110416;28;20503;-72
2022/08/12 09:46:52;;;;;;;4.55;3.00;;;;;;;;;;5110943;28;20395;-73
2022/08/12 09:49:19;;;;;;;5.53;3.00;;;;;;;;;;5111125;28;20032;-73
2022/08/12 09:51:46;;;;;;;5.40;3.13;;;;;;;;;;5110914;28;20024;-72
2022/08/12 09:54:15;;;;;;;5.18;2.92;;;;;;;;;;5110841;28;20442;-74
2022/08/12 09:56:41;;;;;;;4.78;3.13;;;;;;;;;;5111039;28;20065;-73
2022/08/12 09:59:08;;;;;;;3.90;2.90;;;;;;;;;;5111291;28;20024;-72
2022/08/12 10:01:39;;;;;;;3.97;2.58;;;;;;;;;;5110511;28;20157;-72
2022/08/12 10:04:09;;;;;;;4.97;2.88;;;;;;;;;;5111052;28;20081;-72
2022/08/12 10:06:40;;;;;;;4.22;2.78;;;;;;;;;;5105804;28;20430;-73
2022/08/12 10:09:07;;;;;;;4.85;3.17;;;;;;;;;;5104347;28;20027;-72
2022/08/12 10:14:18;;;;;;;4.03;2.60;;;;;;;;;;5110628;28;20050;-74
2022/08/12 10:16:44;;;;;;;4.57;2.90;;;;;;;;;;5109864;28;20028;-73
2022/08/12 10:19:11;;;;;;;4.63;3.17;;;;;;;;;;5110475;28;20031;-73
2022/08/12 10:21:39;;;;;;;4.05;2.40;;;;;;;;;;5110042;28;20507;-74
2022/08/12 10:24:14;;;;;;;4.32;3.10;;;;;;;;;;5110267;28;20469;-75
2022/08/12 10:29:37;;;;;;;4.65;2.67;;;;;;;;;;5108410;28;20443;-70
2022/08/12 10:32:05;;;;;;;4.53;2.78;;;;;;;;;;5090346;28;20052;-70
2022/08/12 10:34:31;;;;;;;3.55;2.58;;;;;;;;;;5089706;28;20017;-74
2022/08/12 10:36:59;;;;;;;7.60;2.90;;;;;;;;;;5100198;28;20024;-76
2022/08/12 10:39:36;;;;;;;4.15;2.70;;;;;;;;;;5103639;28;20028;-74
2022/08/12 10:44:51;;;;;;;4.00;2.53;;;;;;;;;;5082597;28;20055;-75
2022/08/12 10:47:20;;;;;;;3.75;2.53;;;;;;;;;;5078398;28;20028;-75
2022/08/12 10:49:49;;;;;;;3.70;2.53;;;;;;;;;;5092914;28;20020;-75
2022/08/12 10:52:17;;;;;;;4.63;2.83;;;;;;;;;;5095989;28;20111;-75
2022/08/12 10:54:45;;;;;;;4.32;2.30;;;;;;;;;;5092351;28;20028;-75
2022/08/12 10:57:11;;;;;;;4.88;2.90;;;;;;;;;;5085760;28;20081;-75
2022/08/12 10:59:37;;;;;;;4.38;2.70;;;;;;;;;;5077731;28;20069;-76
2022/08/12 11:02:04;;;;;;;3.70;2.47;;;;;;;;;;5078737;28;20495;-76
2022/08/12 11:04:31;;;;;;;3.78;2.35;;;;;;;;;;5093916;28;20013;-76
2022/08/12 11:06:58;;;;;;;4.32;2.78;;;;;;;;;;5095089;28;20024;-77
2022/08/12 11:09:31;;;;;;;3.67;2.38;;;;;;;;;;5095788;28;20024;-75
2022/08/12 11:12:05;;;;;;;4.07;2.42;;;;;;;;;;5088250;28;20117;-75
2022/08/12 11:14:32;;;;;;;4.63;2.83;;;;;;;;;;5094224;28;20024;-76
2022/08/12 11:17:05;;;;;;;4.68;2.55;;;;;;;;;;5095754;28;20020;-77
2022/08/12 11:19:32;;;;;;;4.40;2.70;;;;;;;;;;5095303;28;20035;-75
2022/08/12 11:21:58;;;;;;;5.07;2.63;;;;;;;;;;5095434;28;20035;-75
2022/08/12 11:24:25;;;;;;;6.60;2.40;;;;;;;;;;5095596;28;20016;-73
2022/08/12 11:26:52;;;;;;;4.05;2.38;;;;;;;;;;5090123;28;20028;-77
2022/08/12 11:29:19;;;;;;;7.20;2.88;;;;;;;;;;5074015;28;20028;-76
2022/08/12 11:31:45;;;;;;;3.35;2.53;;;;;;;;;;5074674;28;20388;-75
2022/08/12 11:34:11;;;;;;;4.18;2.80;;;;;;;;;;5074981;28;20047;-76
2022/08/12 11:36:38;;;;;;;4.10;2.45;;;;;;;;;;5073916;28;20021;-76
2022/08/12 11:39:05;;;;;;;4.65;2.58;;;;;;;;;;5074810;28;20036;-76
2022/08/12 11:41:32;;;;;;;3.72;2.22;;;;;;;;;;5075357;28;20021;-77
2022/08/12 11:43:59;;;;;;;3.92;2.80;;;;;;;;;;5075290;28;20017;-76
2022/08/12 11:46:25;;;;;;;4.43;2.70;;;;;;;;;;5074684;28;20118;-77
2022/08/12 11:48:51;;;;;;;4.78;2.80;;;;;;;;;;5075007;28;20104;-77
2022/08/12 11:51:18;;;;;;;4.45;2.75;;;;;;;;;;5074887;28;20480;-77
2022/08/12 11:53:44;;;;;;;4.68;3.17;;;;;;;;;;5074265;28;20032;-77
2022/08/12 11:56:10;;;;;;;3.35;2.63;;;;;;;;;;5072452;28;20023;-78
2022/08/12 11:58:36;;;;;;;5.70;3.13;;;;;;;;;;5074697;28;20452;-78
2022/08/12 12:01:02;;;;;;;3.85;2.50;;;;;;;;;;5074374;28;20465;-78
2022/08/12 12:03:28;;;;;;;4.63;3.05;;;;;;;;;;5074739;28;20032;-77
2022/08/12 12:05:54;;;;;;;4.18;2.75;;;;;;;;;;5074591;28;20024;-78
2022/08/12 12:08:21;;;;;;;5.18;2.75;;;;;;;;;;5074178;28;20476;-78
2022/08/12 12:10:48;;;;;;;4.22;2.90;;;;;;;;;;5073320;28;20016;-77
2022/08/12 12:13:15;;;;;;;3.25;2.42;;;;;;;;;;5074427;28;20038;-78
2022/08/12 12:15:41;;;;;;;3.42;2.28;;;;;;;;;;5074309;28;20071;-78
2022/08/12 12:18:19;;;;;;;6.50;2.70;;;;;;;;;;5074377;28;20031;-78
2022/08/12 12:20:45;;;;;;;3.67;2.45;;;;;;;;;;5074597;28;20468;-78
2022/08/12 12:23:11;;;;;;;5.40;2.40;;;;;;;;;;5073911;28;20032;-78
2022/08/12 12:25:37;;;;;;;5.40;2.70;;;;;;;;;;5074343;28;20421;-78
2022/08/12 12:28:04;;;;;;;3.85;2.63;;;;;;;;;;5074254;28;20484;-78
2022/08/12 12:30:30;;;;;;;3.70;2.60;;;;;;;;;;5072713;28;20040;-78
2022/08/12 12:32:56;;;;;;;4.93;2.72;;;;;;;;;;5074013;28;20052;-78
2022/08/12 12:35:23;;;;;;;2.78;2.05;;;;;;;;;;5073922;28;20088;-78
2022/08/12 12:37:53;;;;;;;4.15;2.38;;;;;;;;;;5074130;28;20029;-79
2022/08/12 12:40:20;;;;;;;5.07;3.20;;;;;;;;;;5073955;28;20020;-78
2022/08/12 12:42:46;;;;;;;6.30;2.97;;;;;;;;;;5073662;28;20016;-78
2022/08/12 12:45:12;;;;;;;3.75;2.58;;;;;;;;;;5072657;28;20017;-78
2022/08/12 12:47:51;;;;;;;4.50;2.75;;;;;;;;;;5074249;28;20103;-78
2022/08/12 12:50:17;;;;;;;4.35;2.58;;;;;;;;;;5073594;28;20066;-78
2022/08/12 12:52:43;;;;;;;3.58;2.30;;;;;;;;;;5073818;28;20024;-78
2022/08/12 12:55:10;;;;;;;5.53;3.05;;;;;;;;;;5072491;28;20031;-78
2022/08/12 12:57:41;;;;;;;2.65;2.30;;;;;;;;;;5073339;28;20052;-77
2022/08/12 13:00:14;;;;;;;4.28;2.88;;;;;;;;;;5073909;28;20028;-77
2022/08/12 13:02:41;;;;;;;5.10;3.20;;;;;;;;;;5073985;28;20016;-76
2022/08/12 13:05:07;;;;;;;5.30;2.97;;;;;;;;;;5073295;28;20031;-77
2022/08/12 13:07:43;;;;;;;14.27;3.83;;;;;;;;;;5073349;28;20552;-76
2022/08/12 13:10:09;;;;;;;5.07;2.95;;;;;;;;;;5072298;28;20056;-77
2022/08/12 13:12:35;;;;;;;6.07;3.03;;;;;;;;;;5073115;28;20028;-76
2022/08/12 13:15:03;;;;;;;8.35;3.58;;;;;;;;;;5073535;28;20119;-76
2022/08/12 13:17:33;;;;;;;5.65;3.38;;;;;;;;;;5073135;28;20407;-76
2022/08/12 13:20:05;;;;;;;6.28;3.55;;;;;;;;;;5073827;28;20582;-77
2022/08/12 13:22:32;;;;;;;4.68;3.00;;;;;;;;;;5073508;28;20036;-77
2022/08/12 13:24:58;;;;;;;7.03;3.30;;;;;;;;;;5073089;28;20070;-77
2022/08/12 13:27:29;;;;;;;7.13;3.08;;;;;;;;;;5073553;28;20033;-76
2022/08/12 13:29:58;;;;;;;6.50;3.33;;;;;;;;;;5073727;28;20027;-76
2022/08/12 13:32:28;;;;;;;4.57;3.30;;;;;;;;;;5072905;28;20181;-76
2022/08/12 13:34:54;;;;;;;4.03;2.97;;;;;;;;;;5073361;28;20049;-76
2022/08/12 13:37:25;;;;;;;4.63;2.97;;;;;;;;;;5073334;28;20074;-77
2022/08/12 13:39:51;;;;;;;4.97;3.08;;;;;;;;;;5071686;28;20540;-77
2022/08/12 13:42:21;;;;;;;3.92;2.85;;;;;;;;;;5073207;28;20059;-77
2022/08/12 13:44:52;;;;;;;3.95;2.75;;;;;;;;;;5073468;28;20032;-76
2022/08/12 13:47:21;;;;;;;5.07;3.00;;;;;;;;;;5072859;28;20499;-76
2022/08/12 13:49:51;;;;;;;6.38;3.17;;;;;;;;;;5073457;28;20140;-76
2022/08/12 13:52:18;;;;;;;4.93;2.95;;;;;;;;;;5071829;28;20039;-77
2022/08/12 13:54:46;;;;;;;7.43;3.20;;;;;;;;;;5072704;28;20472;-77
2022/08/12 13:57:13;;;;;;;5.20;3.50;;;;;;;;;;5073124;28;20025;-75
2022/08/12 13:59:40;;;;;;;6.50;3.30;;;;;;;;;;5071666;28;20496;-77
2022/08/12 14:02:12;;;;;;;5.38;3.35;;;;;;;;;;5073131;28;20077;-77
2022/08/12 14:04:38;;;;;;;4.80;3.13;;;;;;;;;;5073055;28;20082;-77
2022/08/12 14:07:05;;;;;;;5.32;3.15;;;;;;;;;;5072733;28;20103;-77
2022/08/12 14:10:34;;;;;;;6.80;3.40;;;;;;;;;;5073171;28;20492;-77
2022/08/12 14:12:20;;;;;;;5.03;2.80;;;;;;;;;;5072724;28;20041;-77
2022/08/12 14:14:49;;;;;;;4.68;2.95;;;;;;;;;;5072509;28;20024;-77
2022/08/12 14:17:16;;;;;;;6.90;3.70;;;;;;;;;;5071714;28;20024;-77
2022/08/12 14:20:12;;;;;;;6.50;3.80;;;;;;;;;;5074824;28;20025;-77
2022/08/12 14:22:30;;;;;;;4.30;3.03;;;;;;;;;;5076127;28;20032;-77
2022/08/12 14:24:57;;;;;;;5.30;3.70;;;;;;;;;;5076732;28;20476;-77
2022/08/12 14:27:26;;;;;;;6.53;3.38;;;;;;;;;;5076742;28;20024;-77
2022/08/12 14:29:52;;;;;;;5.97;3.63;;;;;;;;;;5076132;28;20017;-77
2022/08/12 14:32:18;;;;;;;7.60;4.03;;;;;;;;;;5076243;28;20055;-76
2022/08/12 14:34:50;;;;;;;6.15;3.80;;;;;;;;;;5076027;28;20028;-76
2022/08/12 14:37:17;;;;;;;6.07;4.03;;;;;;;;;;5076910;28;20024;-76
2022/08/12 14:39:44;;;;;;;5.18;3.50;;;;;;;;;;5075085;28;20473;-76
2022/08/12 14:42:10;;;;;;;7.25;3.45;;;;;;;;;;5075736;28;20027;-77
2022/08/12 14:44:36;;;;;;;5.95;3.75;;;;;;;;;;5076399;28;20384;-76
2022/08/12 14:47:02;;;;;;;5.50;3.40;;;;;;;;;;5074929;28;20410;-76
2022/08/12 14:49:29;;;;;;;7.10;4.32;;;;;;;;;;5075794;28;20028;-76
2022/08/12 14:51:56;;;;;;;5.40;3.45;;;;;;;;;;5075960;28;20396;-76
2022/08/12 14:54:22;;;;;;;5.68;3.58;;;;;;;;;;5076002;28;20024;-76
2022/08/12 14:56:49;;;;;;;5.53;3.15;;;;;;;;;;5074389;28;20025;-76
2022/08/12 15:02:00;;;;;;;6.93;3.35;;;;;;;;;;5075990;28;20071;-76
2022/08/12 15:04:27;;;;;;;9.57;3.65;;;;;;;;;;5075437;28;20024;-76
2022/08/12 15:09:07;;;;;;;5.93;3.42;;;;;;;;;;5111926;27;20389;-77
2022/08/12 15:11:34;;;;;;;9.25;2.83;;;;;;;;;;5110899;28;20032;-77
2022/08/12 15:14:00;;;;;;;5.78;2.33;;;;;;;;;;5111264;28;20043;-77
2022/08/12 15:16:26;;;;;;;3.72;2.20;;;;;;;;;;5111251;28;20094;-77
2022/08/12 15:18:53;;;;;;;7.88;2.90;;;;;;;;;;5126592;28;20525;-77
2022/08/12 15:21:19;;;;;;;11.38;2.88;;;;;;;;;;5111151;28;20020;-76
2022/08/12 15:23:45;;;;;;;9.50;2.63;;;;;;;;;;5111327;28;20024;-77
2022/08/12 15:26:13;;;;;;;5.68;2.65;;;;;;;;;;5110698;28;20031;-76
2022/08/12 15:28:40;;;;;;;4.15;2.13;;;;;;;;;;5110917;28;20092;-76
2022/08/12 15:31:06;;;;;;;4.38;2.40;;;;;;;;;;5110545;28;20024;-76
2022/08/12 15:33:33;;;;;;;6.78;2.50;;;;;;;;;;5110905;28;20103;-76
2022/08/12 15:35:59;;;;;;;5.28;2.15;;;;;;;;;;5111042;28;20472;-76
2022/08/12 15:38:26;;;;;;;5.00;2.92;;;;;;;;;;5110647;28;20483;-76
2022/08/12 15:40:53;;;;;;;5.88;3.40;;;;;;;;;;5110726;28;20020;-75
2022/08/12 15:43:20;;;;;;;5.07;2.50;;;;;;;;;;5110916;28;20031;-76
2022/08/12 15:45:46;;;;;;;6.95;2.65;;;;;;;;;;5110313;28;20111;-75
2022/08/12 15:48:13;;;;;;;5.32;2.50;;;;;;;;;;5110604;28;20035;-75
2022/08/12 15:52:14;;;;;;;8.20;4.20;;;;;;;;;;5111071;27;20400;-75
2022/08/12 15:54:41;;;;;;;6.93;3.63;;;;;;;;;;5111696;28;20499;-76
2022/08/12 15:57:07;;;;;;;8.02;4.07;;;;;;;;;;5127156;28;20423;-76
2022/08/12 16:00:49;;;;;;;8.20;4.13;;;;;;;;;;5111198;27;20846;-76
2022/08/12 16:03:17;;;;;;;11.15;3.97;;;;;;;;;;5111835;28;20030;-76
2022/08/12 16:06:50;;;;;;;6.95;4.10;;;;;;;;;;5111345;27;20385;-76
2022/08/12 16:09:18;;;;;;;10.38;5.10;;;;;;;;;;5111552;28;20027;-76
2022/08/12 16:11:44;;;;;;;10.25;5.45;;;;;;;;;;5111482;28;20077;-76
2022/08/12 16:15:18;;;;;;;8.57;4.28;;;;;;;;;;5050455;28;20423;-77
2022/08/12 16:17:45;;;;;;;9.25;4.63;;;;;;;;;;5052915;28;20583;-75
2022/08/12 16:22:26;;;;;;;8.52;4.40;;;;;;;;;;5111397;27;20385;-76
2022/08/12 16:25:10;;;;;;;8.77;3.80;;;;;;;;;;5111560;27;20406;-75
2022/08/12 16:29:43;;;;;;;8.15;4.07;;;;;;;;;;5071570;28;20426;-75
2022/08/12 16:33:07;;;;;;;8.52;4.43;;;;;;;;;;5111962;27;20426;-75
2022/08/12 16:36:53;;;;;;;7.47;3.75;;;;;;;;;;5071136;28;20399;-77
2022/08/12 16:39:19;;;;;;;7.75;3.80;;;;;;;;;;5070810;28;20029;-76
2022/08/12 16:42:04;;;;;;;6.80;3.72;;;;;;;;;;5111438;27;20915;-75
2022/08/12 16:44:31;;;;;;;5.07;3.20;;;;;;;;;;5111700;28;20054;-75
2022/08/12 16:47:00;;;;;;;11.05;4.53;;;;;;;;;;5109977;28;20020;-76
2022/08/12 16:49:28;;;;;;;15.32;5.95;;;;;;;;;;5109621;28;20020;-77
2022/08/12 16:52:17;;;;;;;7.60;4.25;;;;;;;;;;5111496;27;20117;-77
2022/08/12 16:54:46;;;;;;;9.70;4.40;;;;;;;;;;5111469;28;20038;-77
2022/08/12 16:58:23;;;;;;;7.97;4.60;;;;;;;;;;5111601;27;20986;-75
2022/08/12 17:00:50;;;;;;;8.10;4.75;;;;;;;;;;5111324;28;20069;-75
2022/08/12 17:03:16;;;;;;;9.18;4.47;;;;;;;;;;5111118;28;20088;-76
2022/08/12 17:08:36;;;;;;;6.80;4.00;;;;;;;;;;5112078;27;20584;-75
2022/08/12 17:11:03;;;;;;;6.75;3.97;;;;;;;;;;5110962;28;20028;-77
2022/08/12 17:17:08;;;;;;;6.13;3.30;;;;;;;;;;5111112;27;20389;-75
2022/08/12 17:19:35;;;;;;;5.78;3.50;;;;;;;;;;5111525;28;20369;-77
2022/08/12 17:22:07;;;;;;;7.32;3.08;;;;;;;;;;5111301;28;20031;-76
2022/08/12 17:24:34;;;;;;;6.90;4.45;;;;;;;;;;5110962;28;20020;-77
2022/08/12 17:27:01;;;;;;;8.88;4.30;;;;;;;;;;5111812;28;20020;-76
2022/08/12 17:30:15;;;;;;;6.30;3.70;;;;;;;;;;5112163;27;20381;-76
2022/08/12 17:32:42;;;;;;;5.63;3.47;;;;;;;;;;5111015;28;20024;-78
2022/08/12 17:35:31;;;;;;;6.82;3.80;;;;;;;;;;5112215;27;20406;-75
2022/08/12 17:38:02;;;;;;;6.82;3.90;;;;;;;;;;5126733;28;20053;-76
2022/08/12 17:40:29;;;;;;;9.00;4.53;;;;;;;;;;5111264;28;20031;-75
2022/08/12 17:42:57;;;;;;;6.50;3.83;;;;;;;;;;5111282;28;20027;-75
2022/08/12 17:46:17;;;;;;;6.32;3.45;;;;;;;;;;5111246;27;20392;-75
2022/08/12 17:52:41;;;;;;;6.22;3.63;;;;;;;;;;5111182;27;20419;-74
2022/08/12 17:55:09;;;;;;;7.53;4.38;;;;;;;;;;5111541;28;20103;-75
2022/08/12 17:57:36;;;;;;;8.52;4.07;;;;;;;;;;5109947;28;20050;-76
2022/08/12 18:04:13;;;;;;;9.30;3.72;;;;;;;;;;5111636;27;20963;-75
2022/08/12 18:06:43;;;;;;;5.78;3.08;;;;;;;;;;5110854;28;20026;-75
2022/08/12 18:09:12;;;;;;;5.35;3.58;;;;;;;;;;5111278;28;20069;-74
2022/08/12 18:13:18;;;;;;;5.43;3.55;;;;;;;;;;5111276;27;20465;-75
2022/08/12 18:17:16;;;;;;;6.50;3.67;;;;;;;;;;5111415;27;20389;-77
2022/08/12 18:22:21;;;;;;;7.72;4.47;;;;;;;;;;5111295;27;20426;-76
2022/08/12 18:24:48;;;;;;;5.80;3.45;;;;;;;;;;5111336;28;20028;-76
2022/08/12 18:27:15;;;;;;;6.32;3.85;;;;;;;;;;5126654;28;20089;-76